Lr2 Pioneer — VREE7 — position and weather

sailwx.info

Track history (hours):
 
Tides and Currents Weather Stations Pressure Air Temp Water Temp Dewpoint Dewpoint Depression Visibility Wind Speed Wind Dir Waves Ship Positions

Lr2 Pioneer

Last reported at 2017-Nov-11 14:13 UTC. Time now 2017-Nov-17 23:07 UTC.
Position N 27°52' W 016°25'.

Length 244 m; draft 13.6 m.

Type: Tanker. MMSI: 477114400.

Date/timePositionNaut miles runAvg speedWind from/ knotsBaromVisibWave heightAir tempDewpointWater temp
2017-Nov-11 14:13N 27°52' W 016°25'312.5
2017-Nov-11 14:00N 27°54' W 016°23'612.2
2017-Nov-11 13:30N 27°60' W 016°20'612.1
2017-Nov-11 13:00N 28°04' W 016°16'612.1
2017-Nov-11 12:30N 28°09' W 016°11'612.0
2017-Nov-11 12:00N 28°14' W 016°07'612.0
2017-Nov-11 11:30N 28°18' W 016°03'611.8
2017-Nov-11 11:00N 28°23' W 015°59'611.5
2017-Nov-11 10:30N 28°27' W 015°54'611.3
2017-Nov-11 10:00N 28°32' W 015°50'611.5
2017-Nov-11 09:30N 28°36' W 015°46'611.5
2017-Nov-11 09:00N 28°40' W 015°42'611.5
2017-Nov-11 08:30N 28°45' W 015°38'611.2
2017-Nov-11 08:00N 28°50' W 015°35'611.3
2017-Nov-11 07:30N 28°56' W 015°34'611.3
2017-Nov-11 07:00N 29°01' W 015°32'611.5
2017-Nov-11 06:30N 29°07' W 015°31'611.5
2017-Nov-11 06:00N 29°12' W 015°29'611.3
2017-Nov-11 05:30N 29°18' W 015°27'511.1
2017-Nov-11 05:00N 29°23' W 015°26'611.1
2017-Nov-11 04:30N 29°28' W 015°24'611.4
2017-Nov-11 04:00N 29°34' W 015°22'611.5
2017-Nov-11 03:30N 29°39' W 015°21'611.5
2017-Nov-11 03:00N 29°45' W 015°19'611.5
2017-Nov-11 02:30N 29°50' W 015°18'611.5
2017-Nov-11 02:00N 29°56' W 015°16'611.5
2017-Nov-11 01:30N 30°02' W 015°14'611.3
2017-Nov-11 00:59N 30°07' W 015°13'511.4
2017-Nov-11 00:30N 30°13' W 015°11'611.6
2017-Nov-11 00:00N 30°18' W 015°09'611.6
2017-Nov-10 23:30N 30°24' W 015°07'611.7
2017-Nov-10 23:00N 30°29' W 015°05'611.6
2017-Nov-10 22:30N 30°35' W 015°03'611.5
2017-Nov-10 22:00N 30°40' W 015°01'611.3
2017-Nov-10 21:27N 30°46' W 014°59'511.3
2017-Nov-10 21:00N 30°51' W 014°57'611.1
2017-Nov-10 20:30N 30°56' W 014°55'611.3
2017-Nov-10 20:00N 31°02' W 014°53'611.3
2017-Nov-10 19:30N 31°07' W 014°51'611.4
2017-Nov-10 19:00N 31°13' W 014°49'611.4
2017-Nov-10 18:28N 31°18' W 014°47'611.3
2017-Nov-10 17:59N 31°24' W 014°45'1211.0
2017-Nov-10 16:54N 31°35' W 014°40'5111.2
2017-Nov-10 12:18N 32°24' W 014°23'311.3
2017-Nov-10 12:00N 32°27' W 014°22'711.3
2017-Nov-10 11:23N 32°34' W 014°19'711.2
2017-Nov-10 10:46N 32°41' W 014°17'6011.1
2017-Nov-10 05:17N 33°38' W 013°55'611.1
2017-Nov-10 04:45N 33°44' W 013°53'  
2017-Nov-06 02:22N 49°44' W 003°37'513.0
2017-Nov-06 02:01N 49°47' W 003°31'713.3
2017-Nov-06 01:31N 49°50' W 003°22'713.4
2017-Nov-06 01:00N 49°53' W 003°13'713.2
2017-Nov-06 00:30N 49°57' W 003°04'612.5
2017-Nov-06 00:00N 49°60' W 002°55'611.9
2017-Nov-05 23:30N 50°01' W 002°47'611.1
2017-Nov-05 23:00N 50°02' W 002°38'510.1
2017-Nov-05 22:30N 50°04' W 002°30'18 7.8
2017-Nov-05 20:13N 50°09' W 002°03'1 6.8
2017-Nov-05 20:00N 50°09' W 002°01'3 6.9
2017-Nov-05 19:30N 50°10' W 001°56'4 7.6
2017-Nov-05 19:00N 50°11' W 001°50'4 8.6
2017-Nov-05 18:30N 50°12' W 001°44'5 9.6
2017-Nov-05 18:00N 50°13' W 001°37'510.8
2017-Nov-05 17:30N 50°15' W 001°29'612.0
2017-Nov-05 17:00N 50°16' W 001°20'713.2
2017-Nov-05 16:31N 50°18' W 001°10'2614.1
2017-Nov-05 14:40N 50°24' W 000°30'213.6
2017-Nov-05 14:30N 50°25' W 000°27'713.2
2017-Nov-05 14:00N 50°27' W 000°17'612.6
2017-Nov-05 13:30N 50°28' W 000°07'612.2
2017-Nov-05 13:00N 50°30' E 000°02'611.7
2017-Nov-05 12:30N 50°31' E 000°11'611.1
2017-Nov-05 12:00N 50°33' E 000°19'510.6
2017-Nov-05 11:30N 50°34' E 000°27'510.1
2017-Nov-05 11:00N 50°36' E 000°35'510.0
2017-Nov-05 10:30N 50°38' E 000°42'5 9.8
2017-Nov-05 10:00N 50°41' E 000°48'510.0
2017-Nov-05 09:30N 50°44' E 000°55'510.6
2017-Nov-05 09:00N 50°47' E 001°02'611.4
2017-Nov-05 08:30N 50°50' E 001°09'612.6
2017-Nov-05 08:00N 50°54' E 001°17'714.2
2017-Nov-05 07:30N 50°59' E 001°24'714.5
2017-Nov-05 07:01N 51°04' E 001°32'714.4
2017-Nov-05 06:31N 51°09' E 001°41'713.4
2017-Nov-05 06:00N 51°15' E 001°47'612.3
2017-Nov-05 05:31N 51°20' E 001°52'611.4
2017-Nov-05 05:01N 51°25' E 001°56'510.5
2017-Nov-05 04:31N 51°30' E 001°59'510.1
2017-Nov-05 04:00N 51°34' E 002°05'5 9.7
2017-Nov-05 03:30N 51°37' E 002°10'5 9.3
2017-Nov-05 02:59N 51°41' E 002°15'42410.5
2017-Nov-03 10:26N 57°35' E 008°58'3810.0
2017-Nov-03 06:37N 57°48' E 010°05'310.6
2017-Nov-03 06:18N 57°48' E 010°11'310.6
2017-Nov-03 06:00N 57°48' E 010°17'510.7
2017-Nov-03 05:30N 57°48' E 010°27'510.4
2017-Nov-03 05:00N 57°48' E 010°37'5 9.4
2017-Nov-03 04:29N 57°47' E 010°46'5 9.3
2017-Nov-03 04:00N 57°45' E 010°53'510.3
2017-Nov-03 03:29N 57°41' E 011°00'511.2
2017-Nov-03 03:00N 57°37' E 011°07'611.0
2017-Nov-03 02:30N 57°33' E 011°15'511.1
2017-Nov-03 02:00N 57°30' E 011°22'510.7
2017-Nov-03 01:30N 57°25' E 011°28'510.8
2017-Nov-03 01:01N 57°20' E 011°31'510.5
2017-Nov-03 00:30N 57°15' E 011°34'710.9
2017-Nov-02 23:53N 57°09' E 011°38'411.1
2017-Nov-02 23:29N 57°05' E 011°41'811.0
2017-Nov-02 22:45N 56°57' E 011°46'310.9
2017-Nov-02 22:27N 56°54' E 011°48'610.8
2017-Nov-02 21:53N 56°48' E 011°52'410.0
2017-Nov-02 21:27N 56°44' E 011°52'511.4
2017-Nov-02 20:59N 56°39' E 011°47'511.3
2017-Nov-02 20:31N 56°35' E 011°42'73 9.4
2017-Nov-02 12:44N 55°26' E 010°59'4 9.6
2017-Nov-02 12:20N 55°22' E 011°02'3 9.0
2017-Nov-02 12:00N 55°19' E 011°02'5 9.4
2017-Nov-02 11:29N 55°15' E 011°05'4 7.9
2017-Nov-02 11:01N 55°11' E 011°03'5 9.1
2017-Nov-02 10:31N 55°07' E 010°59'5 9.5
2017-Nov-02 10:00N 55°03' E 011°00'5 9.2
2017-Nov-02 09:30N 54°58' E 010°58'4 9.0
2017-Nov-02 09:01N 54°55' E 010°52'4 8.9
2017-Nov-02 08:30N 54°51' E 010°50'5 9.3
2017-Nov-02 08:01N 54°46' E 010°49'5 9.6
2017-Nov-02 07:31N 54°42' E 010°47'5 9.0
2017-Nov-02 07:00N 54°39' E 010°53'5 9.4
2017-Nov-02 06:31N 54°36' E 010°60'5 9.4
2017-Nov-02 06:00N 54°36' E 011°08'5 9.3
2017-Nov-02 05:30N 54°35' E 011°15'5 9.6
2017-Nov-02 05:00N 54°33' E 011°23'5 9.3
2017-Nov-02 04:31N 54°30' E 011°30'5 9.5
2017-Nov-02 04:01N 54°28' E 011°37'5 9.3
2017-Nov-02 03:31N 54°26' E 011°44'5 9.2
2017-Nov-02 03:01N 54°26' E 011°52'5 9.0
2017-Nov-02 02:30N 54°26' E 012°00'5 9.0
2017-Nov-02 02:00N 54°26' E 012°08'4 8.1
2017-Nov-02 01:30N 54°29' E 012°13'4 7.8
2017-Nov-02 01:00N 54°33' E 012°15'3 6.6
2017-Nov-02 00:30N 54°36' E 012°16'4 8.0
2017-Nov-02 00:00N 54°38' E 012°22'4410.0
2017-Nov-01 19:35N 54°57' E 013°31'410.2
2017-Nov-01 19:13N 54°58' E 013°37'310.1
2017-Nov-01 18:57N 54°59' E 013°42'710.3
2017-Nov-01 18:16N 55°01' E 013°53'  
Track history (hours):
 
Tides and Currents Weather Stations Pressure Air Temp Water Temp Dewpoint Dewpoint Depression Visibility Wind Speed Wind Dir Waves Ship Positions

Lr2 Pioneer

Last reported at 2017-Nov-11 14:13 UTC. Time now 2017-Nov-17 23:07 UTC.
Position N 27°52' W 016°25'.

Length 244 m; draft 13.6 m.

Type: Tanker. MMSI: 477114400.

Date/timePositionNaut miles runAvg speedWind from/ knotsBaromVisibWave heightAir tempDewpointWater temp
2017-Nov-11 14:13N 27°52' W 016°25'312.5
2017-Nov-11 14:00N 27°54' W 016°23'612.2
2017-Nov-11 13:30N 27°60' W 016°20'612.1
2017-Nov-11 13:00N 28°04' W 016°16'612.1
2017-Nov-11 12:30N 28°09' W 016°11'612.0
2017-Nov-11 12:00N 28°14' W 016°07'612.0
2017-Nov-11 11:30N 28°18' W 016°03'611.8
2017-Nov-11 11:00N 28°23' W 015°59'611.5
2017-Nov-11 10:30N 28°27' W 015°54'611.3
2017-Nov-11 10:00N 28°32' W 015°50'611.5
2017-Nov-11 09:30N 28°36' W 015°46'611.5
2017-Nov-11 09:00N 28°40' W 015°42'611.5
2017-Nov-11 08:30N 28°45' W 015°38'611.2
2017-Nov-11 08:00N 28°50' W 015°35'611.3
2017-Nov-11 07:30N 28°56' W 015°34'611.3
2017-Nov-11 07:00N 29°01' W 015°32'611.5
2017-Nov-11 06:30N 29°07' W 015°31'611.5
2017-Nov-11 06:00N 29°12' W 015°29'611.3
2017-Nov-11 05:30N 29°18' W 015°27'511.1
2017-Nov-11 05:00N 29°23' W 015°26'611.1
2017-Nov-11 04:30N 29°28' W 015°24'611.4
2017-Nov-11 04:00N 29°34' W 015°22'611.5
2017-Nov-11 03:30N 29°39' W 015°21'611.5
2017-Nov-11 03:00N 29°45' W 015°19'611.5
2017-Nov-11 02:30N 29°50' W 015°18'611.5
2017-Nov-11 02:00N 29°56' W 015°16'611.5
2017-Nov-11 01:30N 30°02' W 015°14'611.3
2017-Nov-11 00:59N 30°07' W 015°13'511.4
2017-Nov-11 00:30N 30°13' W 015°11'611.6
2017-Nov-11 00:00N 30°18' W 015°09'611.6
2017-Nov-10 23:30N 30°24' W 015°07'611.7
2017-Nov-10 23:00N 30°29' W 015°05'611.6
2017-Nov-10 22:30N 30°35' W 015°03'611.5
2017-Nov-10 22:00N 30°40' W 015°01'611.3
2017-Nov-10 21:27N 30°46' W 014°59'511.3
2017-Nov-10 21:00N 30°51' W 014°57'611.1
2017-Nov-10 20:30N 30°56' W 014°55'611.3
2017-Nov-10 20:00N 31°02' W 014°53'611.3
2017-Nov-10 19:30N 31°07' W 014°51'611.4
2017-Nov-10 19:00N 31°13' W 014°49'611.4
2017-Nov-10 18:28N 31°18' W 014°47'611.3
2017-Nov-10 17:59N 31°24' W 014°45'1211.0
2017-Nov-10 16:54N 31°35' W 014°40'5111.2
2017-Nov-10 12:18N 32°24' W 014°23'311.3
2017-Nov-10 12:00N 32°27' W 014°22'711.3
2017-Nov-10 11:23N 32°34' W 014°19'711.2
2017-Nov-10 10:46N 32°41' W 014°17'6011.1
2017-Nov-10 05:17N 33°38' W 013°55'611.1
2017-Nov-10 04:45N 33°44' W 013°53'  
2017-Nov-06 02:22N 49°44' W 003°37'513.0
2017-Nov-06 02:01N 49°47' W 003°31'713.3
2017-Nov-06 01:31N 49°50' W 003°22'713.4
2017-Nov-06 01:00N 49°53' W 003°13'713.2
2017-Nov-06 00:30N 49°57' W 003°04'612.5
2017-Nov-06 00:00N 49°60' W 002°55'611.9
2017-Nov-05 23:30N 50°01' W 002°47'611.1
2017-Nov-05 23:00N 50°02' W 002°38'510.1
2017-Nov-05 22:30N 50°04' W 002°30'18 7.8
2017-Nov-05 20:13N 50°09' W 002°03'1 6.8
2017-Nov-05 20:00N 50°09' W 002°01'3 6.9
2017-Nov-05 19:30N 50°10' W 001°56'4 7.6
2017-Nov-05 19:00N 50°11' W 001°50'4 8.6
2017-Nov-05 18:30N 50°12' W 001°44'5 9.6
2017-Nov-05 18:00N 50°13' W 001°37'510.8
2017-Nov-05 17:30N 50°15' W 001°29'612.0
2017-Nov-05 17:00N 50°16' W 001°20'713.2
2017-Nov-05 16:31N 50°18' W 001°10'2614.1
2017-Nov-05 14:40N 50°24' W 000°30'213.6
2017-Nov-05 14:30N 50°25' W 000°27'713.2
2017-Nov-05 14:00N 50°27' W 000°17'612.6
2017-Nov-05 13:30N 50°28' W 000°07'612.2
2017-Nov-05 13:00N 50°30' E 000°02'611.7
2017-Nov-05 12:30N 50°31' E 000°11'611.1
2017-Nov-05 12:00N 50°33' E 000°19'510.6
2017-Nov-05 11:30N 50°34' E 000°27'510.1
2017-Nov-05 11:00N 50°36' E 000°35'510.0
2017-Nov-05 10:30N 50°38' E 000°42'5 9.8
2017-Nov-05 10:00N 50°41' E 000°48'510.0
2017-Nov-05 09:30N 50°44' E 000°55'510.6
2017-Nov-05 09:00N 50°47' E 001°02'611.4
2017-Nov-05 08:30N 50°50' E 001°09'612.6
2017-Nov-05 08:00N 50°54' E 001°17'714.2
2017-Nov-05 07:30N 50°59' E 001°24'714.5
2017-Nov-05 07:01N 51°04' E 001°32'714.4
2017-Nov-05 06:31N 51°09' E 001°41'713.4
2017-Nov-05 06:00N 51°15' E 001°47'612.3
2017-Nov-05 05:31N 51°20' E 001°52'611.4
2017-Nov-05 05:01N 51°25' E 001°56'510.5
2017-Nov-05 04:31N 51°30' E 001°59'510.1
2017-Nov-05 04:00N 51°34' E 002°05'5 9.7
2017-Nov-05 03:30N 51°37' E 002°10'5 9.3
2017-Nov-05 02:59N 51°41' E 002°15'42410.5
2017-Nov-03 10:26N 57°35' E 008°58'3810.0
2017-Nov-03 06:37N 57°48' E 010°05'310.6
2017-Nov-03 06:18N 57°48' E 010°11'310.6
2017-Nov-03 06:00N 57°48' E 010°17'510.7
2017-Nov-03 05:30N 57°48' E 010°27'510.4
2017-Nov-03 05:00N 57°48' E 010°37'5 9.4
2017-Nov-03 04:29N 57°47' E 010°46'5 9.3
2017-Nov-03 04:00N 57°45' E 010°53'510.3
2017-Nov-03 03:29N 57°41' E 011°00'511.2
2017-Nov-03 03:00N 57°37' E 011°07'611.0
2017-Nov-03 02:30N 57°33' E 011°15'511.1
2017-Nov-03 02:00N 57°30' E 011°22'510.7
2017-Nov-03 01:30N 57°25' E 011°28'510.8
2017-Nov-03 01:01N 57°20' E 011°31'510.5
2017-Nov-03 00:30N 57°15' E 011°34'710.9
2017-Nov-02 23:53N 57°09' E 011°38'411.1
2017-Nov-02 23:29N 57°05' E 011°41'811.0
2017-Nov-02 22:45N 56°57' E 011°46'310.9
2017-Nov-02 22:27N 56°54' E 011°48'610.8
2017-Nov-02 21:53N 56°48' E 011°52'410.0
2017-Nov-02 21:27N 56°44' E 011°52'511.4
2017-Nov-02 20:59N 56°39' E 011°47'511.3
2017-Nov-02 20:31N 56°35' E 011°42'73 9.4
2017-Nov-02 12:44N 55°26' E 010°59'4 9.6
2017-Nov-02 12:20N 55°22' E 011°02'3 9.0
2017-Nov-02 12:00N 55°19' E 011°02'5 9.4
2017-Nov-02 11:29N 55°15' E 011°05'4 7.9
2017-Nov-02 11:01N 55°11' E 011°03'5 9.1
2017-Nov-02 10:31N 55°07' E 010°59'5 9.5
2017-Nov-02 10:00N 55°03' E 011°00'5 9.2
2017-Nov-02 09:30N 54°58' E 010°58'4 9.0
2017-Nov-02 09:01N 54°55' E 010°52'4 8.9
2017-Nov-02 08:30N 54°51' E 010°50'5 9.3
2017-Nov-02 08:01N 54°46' E 010°49'5 9.6
2017-Nov-02 07:31N 54°42' E 010°47'5 9.0
2017-Nov-02 07:00N 54°39' E 010°53'5 9.4
2017-Nov-02 06:31N 54°36' E 010°60'5 9.4
2017-Nov-02 06:00N 54°36' E 011°08'5 9.3
2017-Nov-02 05:30N 54°35' E 011°15'5 9.6
2017-Nov-02 05:00N 54°33' E 011°23'5 9.3
2017-Nov-02 04:31N 54°30' E 011°30'5 9.5
2017-Nov-02 04:01N 54°28' E 011°37'5 9.3
2017-Nov-02 03:31N 54°26' E 011°44'5 9.2
2017-Nov-02 03:01N 54°26' E 011°52'5 9.0
2017-Nov-02 02:30N 54°26' E 012°00'5 9.0
2017-Nov-02 02:00N 54°26' E 012°08'4 8.1
2017-Nov-02 01:30N 54°29' E 012°13'4 7.8
2017-Nov-02 01:00N 54°33' E 012°15'3 6.6
2017-Nov-02 00:30N 54°36' E 012°16'4 8.0
2017-Nov-02 00:00N 54°38' E 012°22'4410.0
2017-Nov-01 19:35N 54°57' E 013°31'410.2
2017-Nov-01 19:13N 54°58' E 013°37'310.1
2017-Nov-01 18:57N 54°59' E 013°42'710.3
2017-Nov-01 18:16N 55°01' E 013°53'  

Dump ship's entire track history